createdAt,value
2022-09-17T00:01:41.797Z,10.70
2022-09-17T00:04:11.232Z,10.69
2022-09-17T00:06:38.843Z,10.78
2022-09-17T00:09:07.943Z,10.66
2022-09-17T00:11:39.497Z,10.63
2022-09-17T00:14:09.358Z,10.62
2022-09-17T00:16:39.021Z,10.67
2022-09-17T00:19:10.170Z,10.66
2022-09-17T00:21:37.928Z,10.73
2022-09-17T00:24:07.710Z,10.89
2022-09-17T00:26:37.062Z,10.91
2022-09-17T00:29:06.187Z,10.96
2022-09-17T00:31:34.474Z,10.94
2022-09-17T00:34:03.911Z,10.91
2022-09-17T00:36:35.051Z,10.90
2022-09-17T00:39:03.264Z,10.90
2022-09-17T00:41:33.644Z,10.88
2022-09-17T00:44:03.380Z,10.80
2022-09-17T00:46:36.899Z,10.85
2022-09-17T00:49:08.651Z,10.75
2022-09-17T00:51:59.612Z,10.78
2022-09-17T00:54:28.732Z,10.80
2022-09-17T00:56:59.809Z,10.83
2022-09-17T00:59:27.825Z,10.78
2022-09-17T01:01:55.948Z,10.78
2022-09-17T01:04:25.727Z,10.78
2022-09-17T01:07:04.130Z,10.78
2022-09-17T01:09:41.925Z,10.80
2022-09-17T01:12:23.603Z,10.87
2022-09-17T01:15:03.221Z,10.89
2022-09-17T01:17:39.877Z,10.76
2022-09-17T01:20:37.915Z,10.78
2022-09-17T01:23:37.793Z,10.84
2022-09-17T01:26:27.190Z,10.92
2022-09-17T01:29:02.493Z,10.87
2022-09-17T01:31:36.199Z,10.92
2022-09-17T01:34:14.372Z,10.90
2022-09-17T01:36:52.159Z,10.86
2022-09-17T01:39:31.899Z,10.88
2022-09-17T01:42:11.318Z,10.86
2022-09-17T01:44:46.887Z,10.86
2022-09-17T01:47:21.314Z,10.97
2022-09-17T01:49:52.010Z,10.94
2022-09-17T01:52:21.105Z,11.00
2022-09-17T01:54:52.418Z,10.98
2022-09-17T01:57:29.138Z,11.06
2022-09-17T02:00:01.048Z,10.99
2022-09-17T02:02:34.765Z,10.97
2022-09-17T02:05:06.291Z,10.90
2022-09-17T02:07:41.779Z,10.96
2022-09-17T02:10:13.542Z,11.01
2022-09-17T02:12:44.709Z,11.08
2022-09-17T02:15:15.337Z,11.03
2022-09-17T02:17:50.557Z,10.90
2022-09-17T02:20:23.077Z,10.87
2022-09-17T02:22:57.594Z,11.00
2022-09-17T02:25:31.145Z,10.96
2022-09-17T02:28:03.629Z,10.99
2022-09-17T02:30:32.102Z,10.96
2022-09-17T02:33:03.637Z,10.92
2022-09-17T02:35:32.032Z,10.84
2022-09-17T02:37:59.838Z,10.87
2022-09-17T02:40:33.135Z,11.07
2022-09-17T02:43:11.126Z,10.88
2022-09-17T02:45:52.606Z,10.97
2022-09-17T02:48:50.053Z,10.78
2022-09-17T02:51:30.427Z,10.78
2022-09-17T02:54:09.773Z,10.71
2022-09-17T02:56:46.198Z,10.78
2022-09-17T02:59:20.912Z,10.80
2022-09-17T03:01:55.598Z,10.75
2022-09-17T03:04:27.497Z,10.77
2022-09-17T03:06:56.564Z,10.71
2022-09-17T03:09:24.185Z,10.76
2022-09-17T03:11:51.803Z,10.81
2022-09-17T03:14:20.783Z,10.82
2022-09-17T03:16:48.801Z,10.75
2022-09-17T03:19:16.442Z,10.63
2022-09-17T03:21:45.755Z,10.53
2022-09-17T03:24:13.568Z,10.56
2022-09-17T03:26:41.089Z,10.50
2022-09-17T03:29:08.756Z,10.44
2022-09-17T03:31:36.380Z,10.52
2022-09-17T03:34:04.133Z,10.49
2022-09-17T03:36:32.015Z,10.54
2022-09-17T03:39:02.246Z,10.33
2022-09-17T03:41:32.132Z,10.51
2022-09-17T03:43:59.713Z,10.50
2022-09-17T03:46:29.734Z,10.34
2022-09-17T03:48:57.382Z,10.32
2022-09-17T03:51:25.019Z,10.26
2022-09-17T03:53:52.618Z,10.24
2022-09-17T03:56:21.538Z,10.35
2022-09-17T03:58:49.323Z,10.26
2022-09-17T04:01:17.029Z,10.26
2022-09-17T04:03:45.900Z,10.25
2022-09-17T04:06:13.420Z,10.27
2022-09-17T04:08:41.006Z,10.18
2022-09-17T04:11:08.797Z,10.17
2022-09-17T04:13:37.742Z,10.17
2022-09-17T04:16:06.665Z,10.32
2022-09-17T04:18:35.452Z,10.23
2022-09-17T04:21:03.715Z,10.21
2022-09-17T04:23:31.289Z,10.23
2022-09-17T04:25:58.835Z,10.24
2022-09-17T04:28:26.435Z,10.32
2022-09-17T04:30:55.448Z,10.29
2022-09-17T04:33:23.077Z,10.23
2022-09-17T04:35:50.716Z,10.37
2022-09-17T04:38:20.530Z,10.42
2022-09-17T04:40:48.180Z,10.37
2022-09-17T04:43:15.966Z,10.30
2022-09-17T04:45:46.552Z,10.31
2022-09-17T04:48:15.791Z,10.33
2022-09-17T04:50:43.428Z,10.25
2022-09-17T04:53:11.093Z,10.32
2022-09-17T04:55:38.807Z,10.29
2022-09-17T04:58:06.853Z,10.26
2022-09-17T05:00:35.313Z,10.24
2022-09-17T05:03:07.128Z,10.29
2022-09-17T05:05:36.501Z,10.30
2022-09-17T05:08:04.197Z,10.32
2022-09-17T05:10:33.381Z,10.36
2022-09-17T05:13:02.107Z,10.30
2022-09-17T05:15:29.708Z,10.24
2022-09-17T05:17:57.295Z,10.34
2022-09-17T05:20:24.870Z,10.23
2022-09-17T05:22:53.933Z,10.29
2022-09-17T05:25:24.125Z,10.37
2022-09-17T05:27:52.276Z,10.32
2022-09-17T05:30:20.165Z,10.25
2022-09-17T05:32:48.182Z,10.23
2022-09-17T05:35:16.156Z,10.19
2022-09-17T05:37:43.721Z,10.17
2022-09-17T05:40:12.903Z,10.19
2022-09-17T05:42:40.845Z,10.28
2022-09-17T05:45:09.397Z,10.43
2022-09-17T05:47:37.116Z,10.36
2022-09-17T05:50:05.191Z,10.43
2022-09-17T05:52:32.776Z,10.55
2022-09-17T05:55:00.507Z,10.57
2022-09-17T05:57:31.257Z,10.71
2022-09-17T05:59:58.950Z,10.73
2022-09-17T06:02:26.635Z,10.84
2022-09-17T06:04:54.190Z,10.97
2022-09-17T06:07:21.796Z,11.22
2022-09-17T06:09:49.383Z,11.78
2022-09-17T06:12:17.104Z,12.64
2022-09-17T06:14:46.239Z,13.82
2022-09-17T06:17:13.866Z,14.90
2022-09-17T06:19:41.416Z,15.46
2022-09-17T06:22:09.152Z,16.25
2022-09-17T06:24:36.755Z,16.96
2022-09-17T06:27:04.990Z,16.65
2022-09-17T06:29:32.608Z,17.29
2022-09-17T06:32:02.823Z,17.38
2022-09-17T06:34:30.529Z,18.08
2022-09-17T06:36:58.086Z,18.48
2022-09-17T06:39:25.804Z,19.12
2022-09-17T06:41:53.547Z,19.01
2022-09-17T06:44:21.162Z,19.59
2022-09-17T06:46:51.097Z,20.15
2022-09-17T06:49:20.234Z,20.68
2022-09-17T06:51:47.767Z,20.44
2022-09-17T06:54:15.293Z,20.79
2022-09-17T06:56:42.816Z,20.65
2022-09-17T06:59:10.427Z,21.52
2022-09-17T07:01:38.042Z,21.12
2022-09-17T07:04:05.697Z,20.45
2022-09-17T07:06:34.640Z,20.77
2022-09-17T07:09:02.197Z,20.63
2022-09-17T07:11:30.807Z,21.02
2022-09-17T07:13:59.051Z,20.00
2022-09-17T07:16:28.163Z,19.49
2022-09-17T07:18:55.795Z,19.44
2022-09-17T07:21:23.458Z,18.86
2022-09-17T07:23:53.058Z,18.15
2022-09-17T07:26:20.721Z,18.30
2022-09-17T07:28:48.448Z,18.37
2022-09-17T07:31:17.059Z,17.92
2022-09-17T07:33:45.124Z,17.31
2022-09-17T07:36:14.781Z,16.84
2022-09-17T07:38:42.474Z,17.40
2022-09-17T07:41:13.363Z,17.64
2022-09-17T07:43:42.923Z,18.24
2022-09-17T07:46:15.103Z,19.54
2022-09-17T07:48:43.008Z,20.03
2022-09-17T07:51:16.441Z,20.25
2022-09-17T07:53:43.956Z,19.39
2022-09-17T07:56:13.727Z,18.75
2022-09-17T07:58:42.319Z,18.23
2022-09-17T08:01:15.326Z,17.53
2022-09-17T08:03:44.178Z,17.18
2022-09-17T08:06:13.454Z,16.60
2022-09-17T08:08:41.483Z,16.45
2022-09-17T08:11:11.169Z,15.60
2022-09-17T08:13:40.400Z,15.16
2022-09-17T08:16:10.267Z,15.03
2022-09-17T08:18:38.508Z,14.44
2022-09-17T08:21:08.459Z,14.44
2022-09-17T08:23:37.890Z,14.50
2022-09-17T08:26:08.453Z,14.11
2022-09-17T08:28:36.721Z,14.39
2022-09-17T08:31:08.190Z,14.31
2022-09-17T08:33:38.082Z,14.28
2022-09-17T08:36:07.174Z,14.31
2022-09-17T08:38:38.341Z,14.36
2022-09-17T08:41:20.324Z,15.31
2022-09-17T08:43:58.005Z,16.05
2022-09-17T08:46:27.520Z,16.75
2022-09-17T08:49:03.095Z,17.19
2022-09-17T08:51:44.695Z,16.67
2022-09-17T08:54:17.551Z,16.73
2022-09-17T08:56:46.782Z,17.10
2022-09-17T08:59:26.538Z,17.19
2022-09-17T09:02:04.365Z,16.99
2022-09-17T09:04:58.853Z,16.76
2022-09-17T09:07:31.217Z,16.42
2022-09-17T09:10:12.346Z,16.31
2022-09-17T09:12:41.192Z,16.32
2022-09-17T09:15:22.874Z,16.69
2022-09-17T09:17:53.730Z,17.03
2022-09-17T09:20:32.108Z,17.37
2022-09-17T09:23:04.311Z,17.83
2022-09-17T09:25:36.151Z,17.57
2022-09-17T09:28:18.922Z,16.95
2022-09-17T09:31:09.115Z,16.64
2022-09-17T09:33:47.055Z,16.29
2022-09-17T09:36:21.557Z,16.28
2022-09-17T09:38:54.022Z,16.92
2022-09-17T09:41:28.303Z,17.38
2022-09-17T09:44:05.028Z,17.05
2022-09-17T09:46:59.552Z,16.50
2022-09-17T09:49:55.077Z,16.28
2022-09-17T09:52:37.211Z,16.02
2022-09-17T09:55:25.862Z,16.12
2022-09-17T09:58:00.440Z,16.63
2022-09-17T10:00:32.854Z,16.72
2022-09-17T10:03:06.026Z,17.15
2022-09-17T10:05:35.766Z,16.87
2022-09-17T10:08:12.507Z,16.39
2022-09-17T10:10:55.795Z,16.55
2022-09-17T10:13:29.055Z,16.55
2022-09-17T10:16:08.833Z,16.46
2022-09-17T10:18:37.014Z,16.44
2022-09-17T10:21:20.638Z,16.05
2022-09-17T10:23:49.225Z,15.97
2022-09-17T10:26:25.661Z,15.74
2022-09-17T10:28:56.029Z,15.71
2022-09-17T10:31:24.274Z,15.67
2022-09-17T10:33:57.923Z,15.79
2022-09-17T10:36:44.152Z,15.78
2022-09-17T10:39:31.212Z,15.57
2022-09-17T10:42:01.181Z,15.96
2022-09-17T10:44:30.677Z,15.81
2022-09-17T10:47:05.448Z,15.73
2022-09-17T10:49:38.858Z,15.83
2022-09-17T10:52:15.191Z,15.96
2022-09-17T10:55:06.823Z,16.16
2022-09-17T10:57:58.503Z,15.90
2022-09-17T11:00:35.861Z,15.58
2022-09-17T11:03:33.266Z,15.64
2022-09-17T11:06:25.737Z,15.46
2022-09-17T11:09:06.828Z,15.64
2022-09-17T11:11:45.740Z,15.72
2022-09-17T11:14:36.042Z,15.62
2022-09-17T11:17:13.108Z,16.00
2022-09-17T11:19:51.876Z,15.90
2022-09-17T11:22:24.732Z,16.48
2022-09-17T11:25:04.284Z,16.66
2022-09-17T11:27:47.051Z,16.39
2022-09-17T11:30:19.260Z,16.98
2022-09-17T11:33:00.504Z,17.07
2022-09-17T11:35:31.914Z,16.66
2022-09-17T11:38:04.890Z,16.71
2022-09-17T11:40:40.274Z,16.89
2022-09-17T11:43:18.295Z,17.06
2022-09-17T11:45:57.483Z,16.99
2022-09-17T11:48:32.884Z,16.26
2022-09-17T11:51:08.316Z,15.25
2022-09-17T11:53:42.150Z,14.51
2022-09-17T11:56:18.516Z,14.35
2022-09-17T11:58:52.634Z,14.46
2022-09-17T12:01:27.362Z,14.45
2022-09-17T12:04:00.609Z,14.41
2022-09-17T12:06:37.409Z,14.41
2022-09-17T12:09:11.816Z,14.61
2022-09-17T12:11:45.531Z,14.70
2022-09-17T12:14:18.817Z,14.87
2022-09-17T12:16:50.495Z,15.17
2022-09-17T12:19:25.361Z,15.17
2022-09-17T12:21:57.218Z,15.07
2022-09-17T12:24:26.825Z,14.83
2022-09-17T12:27:18.911Z,15.27
2022-09-17T12:30:05.849Z,15.57
2022-09-17T12:32:48.720Z,16.00
2022-09-17T12:35:59.744Z,16.17
2022-09-17T12:38:35.233Z,16.70
2022-09-17T12:41:11.888Z,17.18
2022-09-17T12:44:02.222Z,17.41
2022-09-17T12:46:48.024Z,17.51
2022-09-17T12:49:38.407Z,17.34
2022-09-17T12:52:15.251Z,17.21
2022-09-17T12:55:00.206Z,17.12
2022-09-17T12:57:36.596Z,17.25
2022-09-17T13:00:08.427Z,17.39
2022-09-17T13:02:42.717Z,17.18
2022-09-17T13:05:43.921Z,16.82
2022-09-17T13:08:35.167Z,16.82
2022-09-17T13:11:55.000Z,16.52
2022-09-17T13:14:32.553Z,16.20
2022-09-17T13:17:06.373Z,16.35
2022-09-17T13:19:41.470Z,16.37
2022-09-17T13:22:17.311Z,16.28
2022-09-17T13:24:49.021Z,16.46
2022-09-17T13:27:23.343Z,16.60
2022-09-17T13:30:01.931Z,16.68
2022-09-17T13:32:48.930Z,16.67
2022-09-17T13:35:51.399Z,16.66
2022-09-17T13:38:23.806Z,16.51
2022-09-17T13:40:53.153Z,16.65
2022-09-17T13:43:26.783Z,16.72
2022-09-17T13:46:15.571Z,17.23
2022-09-17T13:48:53.025Z,17.25
2022-09-17T13:51:55.092Z,17.26
2022-09-17T13:54:36.072Z,17.06
2022-09-17T13:57:11.313Z,16.75
2022-09-17T13:59:39.530Z,16.72
2022-09-17T14:02:37.345Z,16.59
2022-09-17T14:05:35.564Z,16.20
2022-09-17T14:08:15.134Z,16.15
2022-09-17T14:10:45.042Z,15.83
2022-09-17T14:13:28.813Z,15.68
2022-09-17T14:16:05.006Z,15.63
2022-09-17T14:18:59.014Z,15.49
2022-09-17T14:21:31.488Z,15.56
2022-09-17T14:24:02.151Z,15.39
2022-09-17T14:26:49.530Z,15.32
2022-09-17T14:29:47.000Z,15.26
2022-09-17T14:32:21.656Z,15.22
2022-09-17T14:34:50.707Z,15.24
2022-09-17T14:37:22.730Z,15.15
2022-09-17T14:39:52.712Z,14.51
2022-09-17T14:42:24.360Z,14.17
2022-09-17T14:44:59.834Z,14.12
2022-09-17T14:47:27.961Z,13.92
2022-09-17T14:49:55.822Z,13.87
2022-09-17T14:52:40.180Z,14.19
2022-09-17T14:55:17.117Z,14.49
2022-09-17T14:57:46.254Z,14.58
2022-09-17T15:00:25.535Z,14.72
2022-09-17T15:02:55.868Z,14.65
2022-09-17T15:05:27.187Z,14.91
2022-09-17T15:08:12.807Z,15.17
2022-09-17T15:10:47.948Z,15.48
2022-09-17T15:13:18.149Z,15.89
2022-09-17T15:15:54.353Z,16.07
2022-09-17T15:18:25.117Z,16.62
2022-09-17T15:20:56.632Z,16.56
2022-09-17T15:23:29.092Z,16.59
2022-09-17T15:25:59.906Z,16.11
2022-09-17T15:28:32.707Z,15.67
2022-09-17T15:31:00.629Z,15.62
2022-09-17T15:33:30.149Z,15.77
2022-09-17T15:36:07.806Z,15.64
2022-09-17T15:38:39.165Z,15.62
2022-09-17T15:41:28.477Z,15.60
2022-09-17T15:44:28.543Z,15.29
2022-09-17T15:46:57.829Z,15.07
2022-09-17T15:49:30.477Z,14.98
2022-09-17T15:52:32.699Z,14.80
2022-09-17T15:55:02.270Z,14.40
2022-09-17T15:57:32.928Z,14.36
2022-09-17T16:00:08.811Z,14.36
2022-09-17T16:02:36.723Z,14.38
2022-09-17T16:05:55.777Z,14.27
2022-09-17T16:08:25.367Z,14.10
2022-09-17T16:10:54.778Z,13.97
2022-09-17T16:13:27.882Z,13.94
2022-09-17T16:15:56.738Z,14.02
2022-09-17T16:18:26.690Z,13.91
2022-09-17T16:20:54.339Z,13.99
2022-09-17T16:23:22.528Z,13.98
2022-09-17T16:25:52.959Z,13.88
2022-09-17T16:28:22.023Z,13.98
2022-09-17T16:30:51.767Z,13.85
2022-09-17T16:33:20.035Z,13.91
2022-09-17T16:35:48.912Z,13.80
2022-09-17T16:38:16.903Z,13.70
2022-09-17T16:40:47.137Z,13.85
2022-09-17T16:43:19.476Z,13.80
2022-09-17T16:46:00.359Z,13.64
2022-09-17T16:48:28.236Z,13.67
2022-09-17T16:50:55.891Z,13.56
2022-09-17T16:53:23.567Z,13.37
2022-09-17T16:55:51.497Z,13.39
2022-09-17T16:58:19.243Z,13.30
2022-09-17T17:00:47.299Z,13.25
2022-09-17T17:03:17.025Z,13.16
2022-09-17T17:05:44.718Z,13.18
2022-09-17T17:08:14.449Z,13.23
2022-09-17T17:10:42.112Z,13.01
2022-09-17T17:13:11.746Z,12.91
2022-09-17T17:15:42.670Z,12.81
2022-09-17T17:18:10.501Z,12.71
2022-09-17T17:20:40.604Z,12.65
2022-09-17T17:23:08.417Z,12.59
2022-09-17T17:25:36.277Z,12.51
2022-09-17T17:28:03.881Z,12.43
2022-09-17T17:30:35.039Z,12.51
2022-09-17T17:33:03.923Z,12.40
2022-09-17T17:35:31.736Z,12.36
2022-09-17T17:38:00.717Z,12.32
2022-09-17T17:40:30.759Z,12.20
2022-09-17T17:42:58.908Z,12.23
2022-09-17T17:45:26.618Z,12.04
2022-09-17T17:47:54.612Z,12.00
2022-09-17T17:50:23.884Z,11.91
2022-09-17T17:52:54.622Z,11.81
2022-09-17T17:55:23.642Z,11.70
2022-09-17T17:58:00.867Z,11.61
2022-09-17T18:00:29.333Z,11.59
2022-09-17T18:02:57.150Z,11.63
2022-09-17T18:05:24.867Z,11.74
2022-09-17T18:07:52.644Z,11.72
2022-09-17T18:10:20.910Z,11.71
2022-09-17T18:12:51.252Z,11.70
2022-09-17T18:15:19.176Z,11.73
2022-09-17T18:17:49.918Z,11.80
2022-09-17T18:20:18.218Z,11.81
2022-09-17T18:22:45.982Z,11.79
2022-09-17T18:25:13.709Z,11.71
2022-09-17T18:27:42.382Z,11.68
2022-09-17T18:30:14.751Z,11.64
2022-09-17T18:32:42.428Z,11.63
2022-09-17T18:35:10.182Z,11.64
2022-09-17T18:37:37.958Z,11.52
2022-09-17T18:40:06.490Z,11.44
2022-09-17T18:42:34.384Z,11.48
2022-09-17T18:45:02.168Z,11.56
2022-09-17T18:47:31.130Z,11.54
2022-09-17T18:49:59.032Z,11.48
2022-09-17T18:52:26.847Z,11.54
2022-09-17T18:54:54.477Z,11.54
2022-09-17T18:57:22.200Z,11.55
2022-09-17T18:59:49.898Z,11.66
2022-09-17T19:02:17.592Z,11.62
2022-09-17T19:04:46.662Z,11.56
2022-09-17T19:07:14.383Z,11.62
2022-09-17T19:09:42.237Z,11.63
2022-09-17T19:12:09.901Z,11.64
2022-09-17T19:14:37.642Z,11.65
2022-09-17T19:17:05.418Z,11.61
2022-09-17T19:19:32.995Z,11.82
2022-09-17T19:22:02.093Z,11.85
2022-09-17T19:24:29.768Z,11.94
2022-09-17T19:27:01.548Z,11.95
2022-09-17T19:29:29.121Z,11.95
2022-09-17T19:31:56.757Z,11.93
2022-09-17T19:34:24.585Z,11.88
2022-09-17T19:36:52.239Z,11.82
2022-09-17T19:39:21.246Z,11.77
2022-09-17T19:41:48.892Z,11.68
2022-09-17T19:44:16.493Z,11.65
2022-09-17T19:46:44.103Z,11.62
2022-09-17T19:49:15.788Z,11.62
2022-09-17T19:51:43.397Z,11.55
2022-09-17T19:54:11.572Z,11.61
2022-09-17T19:56:40.491Z,11.44
2022-09-17T19:59:08.520Z,11.44
2022-09-17T20:01:36.230Z,11.42
2022-09-17T20:04:04.205Z,11.27
2022-09-17T20:06:34.191Z,11.23
2022-09-17T20:09:01.783Z,11.16
2022-09-17T20:11:29.433Z,11.18
2022-09-17T20:13:59.460Z,11.05
2022-09-17T20:16:27.494Z,10.95
2022-09-17T20:18:55.223Z,10.86
2022-09-17T20:21:24.886Z,10.81
2022-09-17T20:23:52.846Z,10.77
2022-09-17T20:26:20.629Z,10.85
2022-09-17T20:28:50.288Z,10.71
2022-09-17T20:31:21.227Z,10.69
2022-09-17T20:33:51.728Z,10.61
2022-09-17T20:36:20.901Z,10.61
2022-09-17T20:41:40.159Z,10.52
2022-09-17T20:44:08.266Z,10.47
2022-09-17T20:46:37.331Z,10.45
2022-09-17T20:49:05.359Z,10.45
2022-09-17T20:51:34.212Z,10.48
2022-09-17T20:54:02.832Z,10.63
2022-09-17T20:56:33.123Z,10.62
2022-09-17T20:59:08.295Z,10.58
2022-09-17T21:01:38.178Z,10.56
2022-09-17T21:04:07.635Z,10.59
2022-09-17T21:06:38.091Z,10.61
2022-09-17T21:09:07.195Z,10.62
2022-09-17T21:11:35.470Z,10.63
2022-09-17T21:14:05.147Z,10.58
2022-09-17T21:16:34.258Z,10.61
2022-09-17T21:19:05.525Z,10.65
2022-09-17T21:21:34.416Z,10.68
2022-09-17T21:24:02.996Z,10.76
2022-09-17T21:26:32.398Z,10.76
2022-09-17T21:28:59.993Z,10.90
2022-09-17T21:31:32.404Z,10.81
2022-09-17T21:34:03.597Z,10.91
2022-09-17T21:36:32.766Z,10.93
2022-09-17T21:39:02.307Z,10.96
2022-09-17T21:41:30.995Z,11.12
2022-09-17T21:43:59.264Z,11.21
2022-09-17T21:46:28.981Z,11.19
2022-09-17T21:48:59.950Z,11.15
2022-09-17T21:51:30.902Z,11.16
2022-09-17T21:54:00.408Z,11.02
2022-09-17T21:56:28.819Z,11.08
2022-09-17T21:58:58.813Z,11.06
2022-09-17T22:01:31.039Z,11.05
2022-09-17T22:04:00.012Z,11.05
2022-09-17T22:06:30.930Z,10.99
2022-09-17T22:09:00.643Z,11.16
2022-09-17T22:11:30.567Z,11.11
2022-09-17T22:14:00.833Z,11.13
2022-09-17T22:16:30.670Z,11.12
2022-09-17T22:18:59.550Z,11.16
2022-09-17T22:21:29.964Z,11.26
2022-09-17T22:23:59.498Z,11.32
2022-09-17T22:26:29.480Z,11.40
2022-09-17T22:29:01.250Z,11.40
2022-09-17T22:31:28.932Z,11.30
2022-09-17T22:33:56.616Z,11.29
2022-09-17T22:36:25.932Z,11.32
2022-09-17T22:38:56.373Z,11.26
2022-09-17T22:41:25.922Z,11.26
2022-09-17T22:43:54.320Z,11.33
2022-09-17T22:46:24.501Z,11.32
2022-09-17T22:48:52.170Z,11.35
2022-09-17T22:51:20.028Z,11.41
2022-09-17T22:53:47.540Z,11.35
2022-09-17T22:56:18.327Z,11.30
2022-09-17T22:58:46.006Z,11.32
2022-09-17T23:01:15.582Z,11.27
2022-09-17T23:03:44.389Z,11.38
2022-09-17T23:06:14.377Z,11.32
2022-09-17T23:08:42.489Z,11.25
2022-09-17T23:11:16.919Z,11.18
2022-09-17T23:13:45.864Z,11.20
2022-09-17T23:16:13.600Z,11.23
2022-09-17T23:18:41.643Z,11.18
2022-09-17T23:21:14.148Z,11.20
2022-09-17T23:23:45.413Z,11.19
2022-09-17T23:26:15.396Z,11.25
2022-09-17T23:28:43.199Z,11.31
2022-09-17T23:31:13.987Z,11.38
2022-09-17T23:33:42.358Z,11.27
2022-09-17T23:36:13.681Z,11.29
2022-09-17T23:38:42.457Z,11.30
2022-09-17T23:41:12.434Z,11.22
2022-09-17T23:43:40.129Z,11.23
2022-09-17T23:46:08.158Z,11.26
2022-09-17T23:48:37.202Z,11.18
2022-09-17T23:51:05.781Z,11.23
2022-09-17T23:53:35.301Z,11.25
2022-09-17T23:56:03.760Z,11.26
2022-09-17T23:58:31.833Z,11.33
